Nancy, Texas
Current Conditions -  °F | °C
As of 11:53 AM on Saturday 20 Dec 2014 (Local Time) from KLFK Reporting Station
Overcast Overcast  
Wind Chill: 53°   Ceiling: 1400
Heat Index: 53°   Visibility: 9mi
Dew Point: 44°   Wind: 6mph
Humidity: 71%   Direction: 10°N
Pressure: 30.23"   Gusts: NA
Location:  31.135°N, 94.3799°W
Report Text: KLFK 201753Z AUTO 01005KT 9SM OVC014 12/07 A3023 RMK AO2 SLP234 T01170067 10122 20100 50000
Loading
Personal Weather Stations






























Interactive Weather Map New forecast layout! Learn more

10-Day Weather Forecast

Advertisements
Track Severe Weather on mobile